WXM80 ListenWXM80 Stop

You find our weather info also at:

UK Metoffice

WeatherCloud

Weather Underground

Northeastern Weather Network

AWEKAS

Citizen Weather Observer Program (CWOP)

HAMweather, WeatherForYou, PWS Weather


Weather Underground History page Text

Daily Summary for June 21, 2017 Units:  Both    English   Metric
« Previous Day
Next Day »
Daily Weekly Monthly Yearly Custom
  High: Low: Average:
Temperature: 89.2 °F /  31.8 °C 69.5 °F /  20.8 °C 77.5 °F /  25.3 °C
Dew Point: 68.1 °F /  20.1 °C 60.5 °F /  15.8 °C 64.6 °F /  18.1 °C
Humidity: 90 % 40 % 67 %
Wind Speed: 7.4 mph /  11.9 km/h - 1.7 mph /  2.7 km/h
Wind Gust: 16.1 mph /  25.9 km/h - -
Wind:- - WSW
Pressure: 29.90 in /  1012.4 hPa 29.80 in /  1009 hPa -
Precipitation: 0.00 in /  0 mm    
Historical Graphs
 
 
Tabular Data for June 21, 2017
Time Temperature Dew Point Pressure Wind Wind Speed Wind Gust Humidity Rainfall Rate (Hourly)
00:04 69.7 °F /  20.9 °C 62.5 °F /  16.9 °C 29.90 in /  1012.4 hPa SW 0.5 mph /  0.8 km/h 3.5 mph /  5.6 km/h 78 % 0.00 in /  0 mm
00:09 69.9 °F /  21.1 °C 62.7 °F /  17.1 °C 29.89 in /  1012.1 hPa WSW 1.6 mph /  2.6 km/h 4.6 mph /  7.4 km/h 78 % 0.00 in /  0 mm
00:12 70.0 °F /  21.1 °C 62.8 °F /  17.1 °C 29.89 in /  1012.1 hPa WSW 0.6 mph /  1 km/h 2.3 mph /  3.7 km/h 78 % 0.00 in /  0 mm
00:17 70.2 °F /  21.2 °C 63.0 °F /  17.2 °C 29.89 in /  1012.1 hPa WSW 2.3 mph /  3.7 km/h 3.5 mph /  5.6 km/h 78 % 0.00 in /  0 mm
00:22 70.3 °F /  21.3 °C 63.5 °F /  17.5 °C 29.89 in /  1012.1 hPa SSW 0.8 mph /  1.3 km/h 2.3 mph /  3.7 km/h 79 % 0.00 in /  0 mm
00:27 70.4 °F /  21.3 °C 63.6 °F /  17.6 °C 29.89 in /  1012.1 hPa WSW 1.6 mph /  2.6 km/h 3.5 mph /  5.6 km/h 79 % 0.00 in /  0 mm
00:32 70.5 °F /  21.4 °C 63.7 °F /  17.6 °C 29.89 in /  1012.1 hPa SSW 1.2 mph /  1.9 km/h 3.5 mph /  5.6 km/h 79 % 0.00 in /  0 mm
00:37 70.5 °F /  21.4 °C 64.0 °F /  17.8 °C 29.89 in /  1012.1 hPa SSW 0.9 mph /  1.4 km/h 3.5 mph /  5.6 km/h 80 % 0.00 in /  0 mm
00:42 70.6 °F /  21.4 °C 64.1 °F /  17.8 °C 29.89 in /  1012.1 hPa SW 1.3 mph /  2.1 km/h 4.0 mph /  6.4 km/h 80 % 0.00 in /  0 mm
00:47 70.7 °F /  21.5 °C 64.2 °F /  17.9 °C 29.89 in /  1012.1 hPa WSW 1.7 mph /  2.7 km/h 4.6 mph /  7.4 km/h 80 % 0.00 in /  0 mm
00:53 70.8 °F /  21.6 °C 64.3 °F /  17.9 °C 29.89 in /  1012.1 hPa South 1.4 mph /  2.3 km/h 6.9 mph /  11.1 km/h 80 % 0.00 in /  0 mm
00:57 70.9 °F /  21.6 °C 64.4 °F /  18 °C 29.89 in /  1012.1 hPa SW 1.0 mph /  1.6 km/h 3.5 mph /  5.6 km/h 80 % 0.00 in /  0 mm
01:02 70.9 °F /  21.6 °C 64.4 °F /  18 °C 29.89 in /  1012.1 hPa WSW 1.4 mph /  2.3 km/h 3.5 mph /  5.6 km/h 80 % 0.00 in /  0 mm
01:08 71.0 °F /  21.7 °C 64.9 °F /  18.3 °C 29.89 in /  1012.1 hPa SW 2.8 mph /  4.5 km/h 4.0 mph /  6.4 km/h 81 % 0.00 in /  0 mm
01:13 71.1 °F /  21.7 °C 65.0 °F /  18.3 °C 29.88 in /  1011.7 hPa SW 0.3 mph /  0.5 km/h 3.5 mph /  5.6 km/h 81 % 0.00 in /  0 mm
01:18 71.1 °F /  21.7 °C 65.0 °F /  18.3 °C 29.88 in /  1011.7 hPa SW 0.8 mph /  1.3 km/h 2.3 mph /  3.7 km/h 81 % 0.00 in /  0 mm
01:23 71.2 °F /  21.8 °C 65.1 °F /  18.4 °C 29.88 in /  1011.7 hPa SW 1.0 mph /  1.6 km/h 3.5 mph /  5.6 km/h 81 % 0.00 in /  0 mm
01:28 71.2 °F /  21.8 °C 65.1 °F /  18.4 °C 29.88 in /  1011.7 hPa SW 0.4 mph /  0.6 km/h 2.3 mph /  3.7 km/h 81 % 0.00 in /  0 mm
01:33 71.2 °F /  21.8 °C 65.1 °F /  18.4 °C 29.88 in /  1011.7 hPa West 0.4 mph /  0.6 km/h 2.3 mph /  3.7 km/h 81 % 0.00 in /  0 mm
01:38 71.2 °F /  21.8 °C 65.1 °F /  18.4 °C 29.88 in /  1011.7 hPa Calm   3.5 mph /  5.6 km/h 81 % 0.00 in /  0 mm
01:43 71.2 °F /  21.8 °C 65.1 °F /  18.4 °C 29.88 in /  1011.7 hPa SSW 0.2 mph /  0.3 km/h 1.2 mph /  1.9 km/h 81 % 0.00 in /  0 mm
01:48 71.2 °F /  21.8 °C 65.4 °F /  18.6 °C 29.88 in /  1011.7 hPa SW 0.4 mph /  0.6 km/h 1.2 mph /  1.9 km/h 82 % 0.00 in /  0 mm
01:53 71.2 °F /  21.8 °C 65.4 °F /  18.6 °C 29.88 in /  1011.7 hPa SSW 1.6 mph /  2.6 km/h 2.3 mph /  3.7 km/h 82 % 0.00 in /  0 mm
01:58 71.2 °F /  21.8 °C 65.4 °F /  18.6 °C 29.88 in /  1011.7 hPa SW 0.4 mph /  0.6 km/h 1.2 mph /  1.9 km/h 82 % 0.00 in /  0 mm
02:03 71.2 °F /  21.8 °C 65.8 °F /  18.8 °C 29.88 in /  1011.7 hPa WSW 3.0 mph /  4.8 km/h 5.8 mph /  9.3 km/h 83 % 0.00 in /  0 mm
02:08 71.2 °F /  21.8 °C 65.8 °F /  18.8 °C 29.88 in /  1011.7 hPa WSW 1.5 mph /  2.4 km/h 3.5 mph /  5.6 km/h 83 % 0.00 in /  0 mm
02:13 71.3 °F /  21.8 °C 66.2 °F /  19 °C 29.88 in /  1011.7 hPa SW 1.2 mph /  1.9 km/h 3.5 mph /  5.6 km/h 84 % 0.00 in /  0 mm
02:18 71.3 °F /  21.8 °C 66.2 °F /  19 °C 29.88 in /  1011.7 hPa WSW 0.9 mph /  1.4 km/h 3.0 mph /  4.8 km/h 84 % 0.00 in /  0 mm
02:23 71.3 °F /  21.8 °C 66.2 °F /  19 °C 29.87 in /  1011.4 hPa SW 1.0 mph /  1.6 km/h 3.5 mph /  5.6 km/h 84 % 0.00 in /  0 mm
02:28 71.4 °F /  21.9 °C 66.3 °F /  19.1 °C 29.88 in /  1011.7 hPa SSW 0.1 mph /  0.2 km/h 6.9 mph /  11.1 km/h 84 % 0.00 in /  0 mm
02:33 71.5 °F /  21.9 °C 66.4 °F /  19.1 °C 29.87 in /  1011.4 hPa SW 0.3 mph /  0.5 km/h 3.5 mph /  5.6 km/h 84 % 0.00 in /  0 mm
02:38 71.5 °F /  21.9 °C 66.8 °F /  19.3 °C 29.87 in /  1011.4 hPa WSW 0.5 mph /  0.8 km/h 3.5 mph /  5.6 km/h 85 % 0.00 in /  0 mm
02:43 71.6 °F /  22 °C 66.8 °F /  19.3 °C 29.87 in /  1011.4 hPa WSW 0.9 mph /  1.4 km/h 2.3 mph /  3.7 km/h 85 % 0.00 in /  0 mm
02:48 71.7 °F /  22.1 °C 66.9 °F /  19.4 °C 29.87 in /  1011.4 hPa Calm     85 % 0.00 in /  0 mm
02:53 71.7 °F /  22.1 °C 66.6 °F /  19.2 °C 29.87 in /  1011.4 hPa WSW 0.2 mph /  0.3 km/h 1.2 mph /  1.9 km/h 84 % 0.00 in /  0 mm
02:58 71.8 °F /  22.1 °C 66.7 °F /  19.3 °C 29.87 in /  1011.4 hPa WSW 0.4 mph /  0.6 km/h 1.2 mph /  1.9 km/h 84 % 0.00 in /  0 mm
03:03 71.8 °F /  22.1 °C 66.7 °F /  19.3 °C 29.87 in /  1011.4 hPa SW 0.2 mph /  0.3 km/h 1.2 mph /  1.9 km/h 84 % 0.00 in /  0 mm
03:08 71.8 °F /  22.1 °C 66.7 °F /  19.3 °C 29.87 in /  1011.4 hPa SW 0.7 mph /  1.1 km/h 1.2 mph /  1.9 km/h 84 % 0.00 in /  0 mm
03:13 71.8 °F /  22.1 °C 66.7 °F /  19.3 °C 29.87 in /  1011.4 hPa SW 0.2 mph /  0.3 km/h 2.3 mph /  3.7 km/h 84 % 0.00 in /  0 mm
03:15 71.8 °F /  22.1 °C 66.7 °F /  19.3 °C 29.87 in /  1011.4 hPa SW 1.5 mph /  2.4 km/h 2.3 mph /  3.7 km/h 84 % 0.00 in /  0 mm
03:20 71.8 °F /  22.1 °C 66.7 °F /  19.3 °C 29.86 in /  1011.1 hPa SW 0.5 mph /  0.8 km/h 2.3 mph /  3.7 km/h 84 % 0.00 in /  0 mm
03:25 71.8 °F /  22.1 °C 67.0 °F /  19.4 °C 29.86 in /  1011.1 hPa Calm     85 % 0.00 in /  0 mm
03:30 71.7 °F /  22.1 °C 66.9 °F /  19.4 °C 29.87 in /  1011.4 hPa WSW 0.1 mph /  0.2 km/h 1.2 mph /  1.9 km/h 85 % 0.00 in /  0 mm
03:35 71.7 °F /  22.1 °C 66.9 °F /  19.4 °C 29.86 in /  1011.1 hPa SW 0.2 mph /  0.3 km/h 2.3 mph /  3.7 km/h 85 % 0.00 in /  0 mm
03:40 71.7 °F /  22.1 °C 66.9 °F /  19.4 °C 29.86 in /  1011.1 hPa SW 0.2 mph /  0.3 km/h 1.2 mph /  1.9 km/h 85 % 0.00 in /  0 mm
03:45 71.6 °F /  22 °C 66.8 °F /  19.3 °C 29.86 in /  1011.1 hPa Calm     85 % 0.00 in /  0 mm
03:50 71.6 °F /  22 °C 66.8 °F /  19.3 °C 29.86 in /  1011.1 hPa Calm   1.0 mph /  1.6 km/h 85 % 0.00 in /  0 mm
03:55 71.6 °F /  22 °C 66.8 °F /  19.3 °C 29.86 in /  1011.1 hPa Calm     85 % 0.00 in /  0 mm
04:00 71.5 °F /  21.9 °C 66.8 °F /  19.3 °C 29.86 in /  1011.1 hPa West 0.6 mph /  1 km/h 2.0 mph /  3.2 km/h 85 % 0.00 in /  0 mm
04:05 71.5 °F /  21.9 °C 66.8 °F /  19.3 °C 29.87 in /  1011.4 hPa West 0.1 mph /  0.2 km/h 2.0 mph /  3.2 km/h 85 % 0.00 in /  0 mm
04:10 71.4 °F /  21.9 °C 66.7 °F /  19.3 °C 29.87 in /  1011.4 hPa WSW 0.8 mph /  1.3 km/h 3.5 mph /  5.6 km/h 85 % 0.00 in /  0 mm
04:15 71.4 °F /  21.9 °C 67.0 °F /  19.4 °C 29.87 in /  1011.4 hPa SW 0.4 mph /  0.6 km/h 3.5 mph /  5.6 km/h 86 % 0.00 in /  0 mm
04:20 71.3 °F /  21.8 °C 66.9 °F /  19.4 °C 29.87 in /  1011.4 hPa Calm     86 % 0.00 in /  0 mm
04:25 71.3 °F /  21.8 °C 66.9 °F /  19.4 °C 29.87 in /  1011.4 hPa SW 0.4 mph /  0.6 km/h 1.0 mph /  1.6 km/h 86 % 0.00 in /  0 mm
04:30 71.3 °F /  21.8 °C 66.9 °F /  19.4 °C 29.87 in /  1011.4 hPa SW 0.2 mph /  0.3 km/h 1.2 mph /  1.9 km/h 86 % 0.00 in /  0 mm
04:35 71.2 °F /  21.8 °C 66.8 °F /  19.3 °C 29.87 in /  1011.4 hPa West 0.2 mph /  0.3 km/h 2.3 mph /  3.7 km/h 86 % 0.00 in /  0 mm
04:40 71.2 °F /  21.8 °C 66.8 °F /  19.3 °C 29.87 in /  1011.4 hPa West 0.8 mph /  1.3 km/h 3.0 mph /  4.8 km/h 86 % 0.00 in /  0 mm
04:45 71.2 °F /  21.8 °C 67.1 °F /  19.5 °C 29.87 in /  1011.4 hPa West 0.6 mph /  1 km/h 1.2 mph /  1.9 km/h 87 % 0.00 in /  0 mm
04:50 71.1 °F /  21.7 °C 67.0 °F /  19.4 °C 29.87 in /  1011.4 hPa Calm   1.0 mph /  1.6 km/h 87 % 0.00 in /  0 mm
04:55 71.1 °F /  21.7 °C 67.0 °F /  19.4 °C 29.87 in /  1011.4 hPa Calm     87 % 0.00 in /  0 mm
05:00 71.0 °F /  21.7 °C 66.9 °F /  19.4 °C 29.87 in /  1011.4 hPa West 0.7 mph /  1.1 km/h 3.0 mph /  4.8 km/h 87 % 0.00 in /  0 mm
05:01 71.0 °F /  21.7 °C 66.9 °F /  19.4 °C 29.87 in /  1011.4 hPa West 1.2 mph /  1.9 km/h 3.5 mph /  5.6 km/h 87 % 0.00 in /  0 mm
05:06 71.0 °F /  21.7 °C 66.9 °F /  19.4 °C 29.88 in /  1011.7 hPa West 0.7 mph /  1.1 km/h 3.0 mph /  4.8 km/h 87 % 0.00 in /  0 mm
05:11 70.9 °F /  21.6 °C 66.8 °F /  19.3 °C 29.88 in /  1011.7 hPa Calm   1.2 mph /  1.9 km/h 87 % 0.00 in /  0 mm
05:16 70.8 °F /  21.6 °C 66.7 °F /  19.3 °C 29.88 in /  1011.7 hPa West 0.3 mph /  0.5 km/h 2.3 mph /  3.7 km/h 87 % 0.00 in /  0 mm
05:21 70.7 °F /  21.5 °C 66.6 °F /  19.2 °C 29.88 in /  1011.7 hPa West 0.4 mph /  0.6 km/h 2.3 mph /  3.7 km/h 87 % 0.00 in /  0 mm
05:26 70.7 °F /  21.5 °C 66.6 °F /  19.2 °C 29.87 in /  1011.4 hPa Calm     87 % 0.00 in /  0 mm
05:31 70.5 °F /  21.4 °C 66.4 °F /  19.1 °C 29.88 in /  1011.7 hPa Calm     87 % 0.00 in /  0 mm
05:36 70.4 °F /  21.3 °C 66.3 °F /  19.1 °C 29.87 in /  1011.4 hPa Calm     87 % 0.00 in /  0 mm
05:41 70.3 °F /  21.3 °C 66.2 °F /  19 °C 29.87 in /  1011.4 hPa Calm     87 % 0.00 in /  0 mm
05:46 70.2 °F /  21.2 °C 66.1 °F /  18.9 °C 29.87 in /  1011.4 hPa Calm     87 % 0.00 in /  0 mm
05:51 70.1 °F /  21.2 °C 66.0 °F /  18.9 °C 29.88 in /  1011.7 hPa Calm     87 % 0.00 in /  0 mm
05:56 69.9 °F /  21.1 °C 66.2 °F /  19 °C 29.87 in /  1011.4 hPa Calm     88 % 0.00 in /  0 mm
06:01 69.8 °F /  21 °C 66.1 °F /  18.9 °C 29.88 in /  1011.7 hPa Calm     88 % 0.00 in /  0 mm
06:06 69.7 °F /  20.9 °C 66.0 °F /  18.9 °C 29.88 in /  1011.7 hPa Calm     88 % 0.00 in /  0 mm
06:11 69.6 °F /  20.9 °C 65.9 °F /  18.8 °C 29.88 in /  1011.7 hPa Calm     88 % 0.00 in /  0 mm
06:16 69.6 °F /  20.9 °C 65.9 °F /  18.8 °C 29.88 in /  1011.7 hPa Calm     88 % 0.00 in /  0 mm
06:22 69.5 °F /  20.8 °C 66.1 °F /  18.9 °C 29.88 in /  1011.7 hPa West 0.1 mph /  0.2 km/h 1.0 mph /  1.6 km/h 89 % 0.00 in /  0 mm
06:27 69.5 °F /  20.8 °C 66.4 °F /  19.1 °C 29.88 in /  1011.7 hPa West 1.1 mph /  1.8 km/h 2.0 mph /  3.2 km/h 90 % 0.00 in /  0 mm
06:32 69.6 °F /  20.9 °C 66.5 °F /  19.2 °C 29.89 in /  1012.1 hPa SSW 1.5 mph /  2.4 km/h 3.5 mph /  5.6 km/h 90 % 0.00 in /  0 mm
06:37 69.7 °F /  20.9 °C 66.6 °F /  19.2 °C 29.89 in /  1012.1 hPa SSW 0.1 mph /  0.2 km/h 1.2 mph /  1.9 km/h 90 % 0.00 in /  0 mm
06:42 69.9 °F /  21.1 °C 66.8 °F /  19.3 °C 29.89 in /  1012.1 hPa South 0.5 mph /  0.8 km/h 2.3 mph /  3.7 km/h 90 % 0.00 in /  0 mm
06:47 70.0 °F /  21.1 °C 66.9 °F /  19.4 °C 29.89 in /  1012.1 hPa South 0.5 mph /  0.8 km/h 2.3 mph /  3.7 km/h 90 % 0.00 in /  0 mm
06:52 70.3 °F /  21.3 °C 66.9 °F /  19.4 °C 29.89 in /  1012.1 hPa SW 2.2 mph /  3.5 km/h 3.5 mph /  5.6 km/h 89 % 0.00 in /  0 mm
06:57 70.7 °F /  21.5 °C 67.0 °F /  19.4 °C 29.89 in /  1012.1 hPa SSW 0.6 mph /  1 km/h 2.3 mph /  3.7 km/h 88 % 0.00 in /  0 mm
07:02 71.1 °F /  21.7 °C 67.0 °F /  19.4 °C 29.89 in /  1012.1 hPa SW 1.1 mph /  1.8 km/h 3.5 mph /  5.6 km/h 87 % 0.00 in /  0 mm
07:07 71.6 °F /  22 °C 66.8 °F /  19.3 °C 29.89 in /  1012.1 hPa WSW 0.3 mph /  0.5 km/h 1.2 mph /  1.9 km/h 85 % 0.00 in /  0 mm
07:12 72.1 °F /  22.3 °C 66.6 °F /  19.2 °C 29.88 in /  1011.7 hPa WSW 1.5 mph /  2.4 km/h 3.0 mph /  4.8 km/h 83 % 0.00 in /  0 mm
07:17 72.7 °F /  22.6 °C 66.9 °F /  19.4 °C 29.89 in /  1012.1 hPa SW 0.6 mph /  1 km/h 1.2 mph /  1.9 km/h 82 % 0.00 in /  0 mm
07:22 73.2 °F /  22.9 °C 66.7 °F /  19.3 °C 29.89 in /  1012.1 hPa SW 0.2 mph /  0.3 km/h 3.5 mph /  5.6 km/h 80 % 0.00 in /  0 mm
07:27 73.7 °F /  23.2 °C 66.8 °F /  19.3 °C 29.89 in /  1012.1 hPa SW 1.9 mph /  3.1 km/h 2.3 mph /  3.7 km/h 79 % 0.00 in /  0 mm
07:32 74.2 °F /  23.4 °C 66.5 °F /  19.2 °C 29.89 in /  1012.1 hPa SW 0.9 mph /  1.4 km/h 2.3 mph /  3.7 km/h 77 % 0.00 in /  0 mm
07:37 74.6 °F /  23.7 °C 66.1 °F /  18.9 °C 29.89 in /  1012.1 hPa West 0.9 mph /  1.4 km/h 5.8 mph /  9.3 km/h 75 % 0.00 in /  0 mm
07:42 74.9 °F /  23.8 °C 66.4 °F /  19.1 °C 29.89 in /  1012.1 hPa SW 2.0 mph /  3.2 km/h 3.5 mph /  5.6 km/h 75 % 0.00 in /  0 mm
07:44 75.0 °F /  23.9 °C 66.5 °F /  19.2 °C 29.89 in /  1012.1 hPa SW 1.2 mph /  1.9 km/h 3.5 mph /  5.6 km/h 75 % 0.00 in /  0 mm
07:49 75.3 °F /  24.1 °C 66.8 °F /  19.3 °C 29.89 in /  1012.1 hPa WSW 1.3 mph /  2.1 km/h 3.5 mph /  5.6 km/h 75 % 0.00 in /  0 mm
07:54 75.4 °F /  24.1 °C 66.9 °F /  19.4 °C 29.89 in /  1012.1 hPa WSW 3.7 mph /  6 km/h 6.0 mph /  9.7 km/h 75 % 0.00 in /  0 mm
07:59 75.4 °F /  24.1 °C 66.5 °F /  19.2 °C 29.89 in /  1012.1 hPa WSW 1.8 mph /  2.9 km/h 5.8 mph /  9.3 km/h 74 % 0.00 in /  0 mm
08:04 75.5 °F /  24.2 °C 66.2 °F /  19 °C 29.89 in /  1012.1 hPa WSW 1.1 mph /  1.8 km/h 3.5 mph /  5.6 km/h 73 % 0.00 in /  0 mm
08:09 75.6 °F /  24.2 °C 66.3 °F /  19.1 °C 29.89 in /  1012.1 hPa NW 1.4 mph /  2.3 km/h 4.0 mph /  6.4 km/h 73 % 0.00 in /  0 mm
08:14 75.6 °F /  24.2 °C 66.7 °F /  19.3 °C 29.89 in /  1012.1 hPa WNW 1.4 mph /  2.3 km/h 3.5 mph /  5.6 km/h 74 % 0.00 in /  0 mm
08:19 75.8 °F /  24.3 °C 68.1 °F /  20.1 °C 29.89 in /  1012.1 hPa NW 0.3 mph /  0.5 km/h 1.2 mph /  1.9 km/h 77 % 0.00 in /  0 mm
08:24 75.8 °F /  24.3 °C 68.1 °F /  20.1 °C 29.90 in /  1012.4 hPa NNE 3.1 mph /  5 km/h 9.2 mph /  14.8 km/h 77 % 0.00 in /  0 mm
08:29 75.7 °F /  24.3 °C 68.0 °F /  20 °C 29.89 in /  1012.1 hPa SSW 0.3 mph /  0.5 km/h 2.3 mph /  3.7 km/h 77 % 0.00 in /  0 mm
08:34 75.7 °F /  24.3 °C 68.0 °F /  20 °C 29.89 in /  1012.1 hPa SW 3.2 mph /  5.1 km/h 4.6 mph /  7.4 km/h 77 % 0.00 in /  0 mm
08:39 75.7 °F /  24.3 °C 67.6 °F /  19.8 °C 29.89 in /  1012.1 hPa WNW 0.2 mph /  0.3 km/h 3.5 mph /  5.6 km/h 76 % 0.00 in /  0 mm
08:44 75.8 °F /  24.3 °C 67.3 °F /  19.6 °C 29.89 in /  1012.1 hPa West 1.6 mph /  2.6 km/h 4.6 mph /  7.4 km/h 75 % 0.00 in /  0 mm
08:49 75.8 °F /  24.3 °C 66.1 °F /  18.9 °C 29.89 in /  1012.1 hPa SW 4.9 mph /  7.9 km/h 5.8 mph /  9.3 km/h 72 % 0.00 in /  0 mm
08:54 76.0 °F /  24.4 °C 66.3 °F /  19.1 °C 29.89 in /  1012.1 hPa WNW 2.0 mph /  3.2 km/h 6.0 mph /  9.7 km/h 72 % 0.00 in /  0 mm
08:59 76.1 °F /  24.5 °C 66.8 °F /  19.3 °C 29.89 in /  1012.1 hPa NW 0.3 mph /  0.5 km/h 3.5 mph /  5.6 km/h 73 % 0.00 in /  0 mm
09:04 76.3 °F /  24.6 °C 67.4 °F /  19.7 °C 29.88 in /  1011.7 hPa WNW 2.9 mph /  4.7 km/h 4.6 mph /  7.4 km/h 74 % 0.00 in /  0 mm
09:09 76.4 °F /  24.7 °C 65.9 °F /  18.8 °C 29.88 in /  1011.7 hPa WSW 2.0 mph /  3.2 km/h 5.8 mph /  9.3 km/h 70 % 0.00 in /  0 mm
09:14 76.6 °F /  24.8 °C 64.0 °F /  17.8 °C 29.88 in /  1011.7 hPa SW 3.3 mph /  5.3 km/h 4.6 mph /  7.4 km/h 65 % 0.00 in /  0 mm
09:19 76.7 °F /  24.8 °C 63.2 °F /  17.3 °C 29.88 in /  1011.7 hPa SW 5.2 mph /  8.4 km/h 5.8 mph /  9.3 km/h 63 % 0.00 in /  0 mm
09:24 77.0 °F /  25 °C 63.4 °F /  17.4 °C 29.88 in /  1011.7 hPa WSW 3.1 mph /  5 km/h 4.6 mph /  7.4 km/h 63 % 0.00 in /  0 mm
09:29 77.2 °F /  25.1 °C 64.1 °F /  17.8 °C 29.88 in /  1011.7 hPa West 1.4 mph /  2.3 km/h 5.8 mph /  9.3 km/h 64 % 0.00 in /  0 mm
09:34 77.4 °F /  25.2 °C 64.3 °F /  17.9 °C 29.88 in /  1011.7 hPa WNW 3.5 mph /  5.6 km/h 4.6 mph /  7.4 km/h 64 % 0.00 in /  0 mm
09:39 77.6 °F /  25.3 °C 64.0 °F /  17.8 °C 29.89 in /  1012.1 hPa West 5.1 mph /  8.2 km/h 7.0 mph /  11.3 km/h 63 % 0.00 in /  0 mm
09:44 77.9 °F /  25.5 °C 63.8 °F /  17.7 °C 29.89 in /  1012.1 hPa SW 3.0 mph /  4.8 km/h 9.2 mph /  14.8 km/h 62 % 0.00 in /  0 mm
09:50 78.3 °F /  25.7 °C 63.7 °F /  17.6 °C 29.89 in /  1012.1 hPa WNW 1.7 mph /  2.7 km/h 6.9 mph /  11.1 km/h 61 % 0.00 in /  0 mm
09:55 78.8 °F /  26 °C 63.7 °F /  17.6 °C 29.89 in /  1012.1 hPa NW 2.7 mph /  4.3 km/h 5.8 mph /  9.3 km/h 60 % 0.00 in /  0 mm
10:00 79.3 °F /  26.3 °C 63.7 °F /  17.6 °C 29.89 in /  1012.1 hPa West 3.5 mph /  5.6 km/h 4.0 mph /  6.4 km/h 59 % 0.00 in /  0 mm
10:05 79.5 °F /  26.4 °C 63.9 °F /  17.7 °C 29.89 in /  1012.1 hPa West 2.6 mph /  4.2 km/h 5.8 mph /  9.3 km/h 59 % 0.00 in /  0 mm
10:10 79.8 °F /  26.6 °C 63.7 °F /  17.6 °C 29.88 in /  1011.7 hPa NW 3.8 mph /  6.1 km/h 7.0 mph /  11.3 km/h 58 % 0.00 in /  0 mm
10:15 80.2 °F /  26.8 °C 63.6 °F /  17.6 °C 29.88 in /  1011.7 hPa SW 2.2 mph /  3.5 km/h 6.0 mph /  9.7 km/h 57 % 0.00 in /  0 mm
10:20 80.7 °F /  27.1 °C 62.5 °F /  16.9 °C 29.88 in /  1011.7 hPa WSW 5.3 mph /  8.5 km/h 9.2 mph /  14.8 km/h 54 % 0.00 in /  0 mm
10:25 81.4 °F /  27.4 °C 64.7 °F /  18.2 °C 29.88 in /  1011.7 hPa WSW 4.0 mph /  6.4 km/h 5.8 mph /  9.3 km/h 57 % 0.00 in /  0 mm
10:30 82.0 °F /  27.8 °C 64.2 °F /  17.9 °C 29.88 in /  1011.7 hPa SW 3.6 mph /  5.8 km/h 4.6 mph /  7.4 km/h 55 % 0.00 in /  0 mm
10:35 82.7 °F /  28.2 °C 63.8 °F /  17.7 °C 29.88 in /  1011.7 hPa SW 1.5 mph /  2.4 km/h 3.5 mph /  5.6 km/h 53 % 0.00 in /  0 mm
10:41 83.2 °F /  28.4 °C 63.2 °F /  17.3 °C 29.89 in /  1012.1 hPa SW 7.0 mph /  11.3 km/h 10.0 mph /  16.1 km/h 51 % 0.00 in /  0 mm
10:46 83.6 °F /  28.7 °C 63.0 °F /  17.2 °C 29.88 in /  1011.7 hPa WSW 5.0 mph /  8 km/h 8.0 mph /  12.9 km/h 50 % 0.00 in /  0 mm
10:51 84.0 °F /  28.9 °C 65.0 °F /  18.3 °C 29.88 in /  1011.7 hPa WSW 5.0 mph /  8 km/h 8.0 mph /  12.9 km/h 53 % 0.00 in /  0 mm
10:56 84.3 °F /  29.1 °C 65.3 °F /  18.5 °C 29.88 in /  1011.7 hPa WSW 2.0 mph /  3.2 km/h 8.0 mph /  12.9 km/h 53 % 0.00 in /  0 mm
11:01 84.8 °F /  29.3 °C 66.3 °F /  19.1 °C 29.88 in /  1011.7 hPa SW 1.2 mph /  1.9 km/h 4.6 mph /  7.4 km/h 54 % 0.00 in /  0 mm
11:06 85.1 °F /  29.5 °C 64.4 °F /  18 °C 29.88 in /  1011.7 hPa West 1.0 mph /  1.6 km/h 8.0 mph /  12.9 km/h 50 % 0.00 in /  0 mm
11:11 85.1 °F /  29.5 °C 66.0 °F /  18.9 °C 29.88 in /  1011.7 hPa Calm   3.0 mph /  4.8 km/h 53 % 0.00 in /  0 mm
11:16 85.2 °F /  29.6 °C 63.9 °F /  17.7 °C 29.88 in /  1011.7 hPa NW 1.1 mph /  1.8 km/h 2.3 mph /  3.7 km/h 49 % 0.00 in /  0 mm
11:20 85.5 °F /  29.7 °C 65.9 °F /  18.8 °C 29.88 in /  1011.7 hPa NW 0.5 mph /  0.8 km/h 1.2 mph /  1.9 km/h 52 % 0.00 in /  0 mm
11:26 85.8 °F /  29.9 °C 66.7 °F /  19.3 °C 29.88 in /  1011.7 hPa WNW 0.8 mph /  1.3 km/h 4.6 mph /  7.4 km/h 53 % 0.00 in /  0 mm
11:31 86.1 °F /  30.1 °C 68.1 °F /  20.1 °C 29.88 in /  1011.7 hPa North 1.0 mph /  1.6 km/h 5.0 mph /  8 km/h 55 % 0.00 in /  0 mm
11:36 86.5 °F /  30.3 °C 65.7 °F /  18.7 °C 29.88 in /  1011.7 hPa NW 1.0 mph /  1.6 km/h 6.0 mph /  9.7 km/h 50 % 0.00 in /  0 mm
11:41 87.2 °F /  30.7 °C 66.8 °F /  19.3 °C 29.88 in /  1011.7 hPa WNW 2.0 mph /  3.2 km/h 7.0 mph /  11.3 km/h 51 % 0.00 in /  0 mm
11:46 87.5 °F /  30.8 °C 64.2 °F /  17.9 °C 29.88 in /  1011.7 hPa WNW 3.0 mph /  4.8 km/h 9.0 mph /  14.5 km/h 46 % 0.00 in /  0 mm
11:51 87.5 °F /  30.8 °C 64.2 °F /  17.9 °C 29.88 in /  1011.7 hPa WNW 3.0 mph /  4.8 km/h 6.0 mph /  9.7 km/h 46 % 0.00 in /  0 mm
11:56 86.9 °F /  30.5 °C 64.3 °F /  17.9 °C 29.88 in /  1011.7 hPa NW 3.0 mph /  4.8 km/h 8.0 mph /  12.9 km/h 47 % 0.00 in /  0 mm
12:01 86.5 °F /  30.3 °C 66.2 °F /  19 °C 29.88 in /  1011.7 hPa NW 1.9 mph /  3.1 km/h 2.3 mph /  3.7 km/h 51 % 0.00 in /  0 mm
12:06 86.3 °F /  30.2 °C 64.9 °F /  18.3 °C 29.88 in /  1011.7 hPa NW 2.3 mph /  3.7 km/h 4.6 mph /  7.4 km/h 49 % 0.00 in /  0 mm
12:11 86.3 °F /  30.2 °C 67.2 °F /  19.6 °C 29.88 in /  1011.7 hPa WNW 2.0 mph /  3.2 km/h 3.5 mph /  5.6 km/h 53 % 0.00 in /  0 mm
12:16 86.0 °F /  30 °C 64.0 °F /  17.8 °C 29.88 in /  1011.7 hPa North 2.4 mph /  3.9 km/h 6.0 mph /  9.7 km/h 48 % 0.00 in /  0 mm
12:21 86.2 °F /  30.1 °C 64.8 °F /  18.2 °C 29.88 in /  1011.7 hPa NW 3.1 mph /  5 km/h 6.9 mph /  11.1 km/h 49 % 0.00 in /  0 mm
12:26 86.5 °F /  30.3 °C 65.7 °F /  18.7 °C 29.88 in /  1011.7 hPa NW 0.9 mph /  1.4 km/h 9.2 mph /  14.8 km/h 50 % 0.00 in /  0 mm
12:31 86.8 °F /  30.4 °C 64.8 °F /  18.2 °C 29.87 in /  1011.4 hPa SSW 3.6 mph /  5.8 km/h 7.0 mph /  11.3 km/h 48 % 0.00 in /  0 mm
12:36 87.1 °F /  30.6 °C 63.8 °F /  17.7 °C 29.87 in /  1011.4 hPa West 2.5 mph /  4 km/h 5.8 mph /  9.3 km/h 46 % 0.00 in /  0 mm
12:41 87.4 °F /  30.8 °C 64.1 °F /  17.8 °C 29.87 in /  1011.4 hPa West 5.3 mph /  8.5 km/h 9.2 mph /  14.8 km/h 46 % 0.00 in /  0 mm
12:46 87.6 °F /  30.9 °C 64.9 °F /  18.3 °C 29.87 in /  1011.4 hPa WNW 3.1 mph /  5 km/h 5.8 mph /  9.3 km/h 47 % 0.00 in /  0 mm
12:51 88.0 °F /  31.1 °C 65.8 °F /  18.8 °C 29.86 in /  1011.1 hPa WNW 2.8 mph /  4.5 km/h 5.8 mph /  9.3 km/h 48 % 0.00 in /  0 mm
12:56 88.3 °F /  31.3 °C 63.6 °F /  17.6 °C 29.86 in /  1011.1 hPa WSW 4.6 mph /  7.4 km/h 8.1 mph /  13 km/h 44 % 0.00 in /  0 mm
13:01 88.4 °F /  31.3 °C 63.1 °F /  17.3 °C 29.86 in /  1011.1 hPa WSW 5.8 mph /  9.3 km/h 9.0 mph /  14.5 km/h 43 % 0.00 in /  0 mm
13:06 88.5 °F /  31.4 °C 65.1 °F /  18.4 °C 29.86 in /  1011.1 hPa WSW 3.0 mph /  4.8 km/h 9.2 mph /  14.8 km/h 46 % 0.00 in /  0 mm
13:11 88.6 °F /  31.4 °C 64.5 °F /  18.1 °C 29.85 in /  1010.7 hPa WNW 2.0 mph /  3.2 km/h 4.6 mph /  7.4 km/h 45 % 0.00 in /  0 mm
13:16 88.4 °F /  31.3 °C 64.4 °F /  18 °C 29.85 in /  1010.7 hPa West 1.3 mph /  2.1 km/h 4.6 mph /  7.4 km/h 45 % 0.00 in /  0 mm
13:21 88.0 °F /  31.1 °C 64.6 °F /  18.1 °C 29.85 in /  1010.7 hPa WSW 1.5 mph /  2.4 km/h 3.5 mph /  5.6 km/h 46 % 0.00 in /  0 mm
13:26 87.4 °F /  30.8 °C 63.5 °F /  17.5 °C 29.85 in /  1010.7 hPa WNW 1.0 mph /  1.6 km/h 3.5 mph /  5.6 km/h 45 % 0.00 in /  0 mm
13:31 86.8 °F /  30.4 °C 62.3 °F /  16.8 °C 29.85 in /  1010.7 hPa NW 7.4 mph /  11.9 km/h 11.5 mph /  18.5 km/h 44 % 0.00 in /  0 mm
13:36 86.4 °F /  30.2 °C 63.8 °F /  17.7 °C 29.85 in /  1010.7 hPa WNW 0.6 mph /  1 km/h 3.5 mph /  5.6 km/h 47 % 0.00 in /  0 mm
13:41 86.5 °F /  30.3 °C 63.3 °F /  17.4 °C 29.84 in /  1010.4 hPa WSW 7.2 mph /  11.6 km/h 10.0 mph /  16.1 km/h 46 % 0.00 in /  0 mm
13:46 86.7 °F /  30.4 °C 63.4 °F /  17.4 °C 29.84 in /  1010.4 hPa SW 2.3 mph /  3.7 km/h 3.5 mph /  5.6 km/h 46 % 0.00 in /  0 mm
13:52 87.1 °F /  30.6 °C 66.2 °F /  19 °C 29.84 in /  1010.4 hPa SW 3.4 mph /  5.5 km/h 6.0 mph /  9.7 km/h 50 % 0.00 in /  0 mm
13:57 87.1 °F /  30.6 °C 63.8 °F /  17.7 °C 29.84 in /  1010.4 hPa WNW 4.3 mph /  6.9 km/h 6.9 mph /  11.1 km/h 46 % 0.00 in /  0 mm
14:02 87.1 °F /  30.6 °C 63.8 °F /  17.7 °C 29.84 in /  1010.4 hPa SSW 2.1 mph /  3.4 km/h 3.5 mph /  5.6 km/h 46 % 0.00 in /  0 mm
14:07 87.3 °F /  30.7 °C 64.0 °F /  17.8 °C 29.83 in /  1010 hPa NNW 3.2 mph /  5.1 km/h 6.9 mph /  11.1 km/h 46 % 0.00 in /  0 mm
14:12 87.6 °F /  30.9 °C 64.9 °F /  18.3 °C 29.83 in /  1010 hPa SW 2.3 mph /  3.7 km/h 6.9 mph /  11.1 km/h 47 % 0.00 in /  0 mm
14:17 87.7 °F /  30.9 °C 65.0 °F /  18.3 °C 29.83 in /  1010 hPa WSW 3.8 mph /  6.1 km/h 8.0 mph /  12.9 km/h 47 % 0.00 in /  0 mm
14:22 87.9 °F /  31.1 °C 65.2 °F /  18.4 °C 29.83 in /  1010 hPa WSW 3.6 mph /  5.8 km/h 7.0 mph /  11.3 km/h 47 % 0.00 in /  0 mm
14:27 88.1 °F /  31.2 °C 63.4 °F /  17.4 °C 29.83 in /  1010 hPa South 5.9 mph /  9.5 km/h 9.2 mph /  14.8 km/h 44 % 0.00 in /  0 mm
14:32 88.2 °F /  31.2 °C 62.9 °F /  17.2 °C 29.83 in /  1010 hPa SW 4.9 mph /  7.9 km/h 6.9 mph /  11.1 km/h 43 % 0.00 in /  0 mm
14:37 88.3 °F /  31.3 °C 63.6 °F /  17.6 °C 29.83 in /  1010 hPa NW 1.9 mph /  3.1 km/h 4.0 mph /  6.4 km/h 44 % 0.00 in /  0 mm
14:42 88.5 °F /  31.4 °C 63.8 °F /  17.7 °C 29.83 in /  1010 hPa WNW 2.4 mph /  3.9 km/h 6.9 mph /  11.1 km/h 44 % 0.00 in /  0 mm
14:47 88.6 °F /  31.4 °C 66.4 °F /  19.1 °C 29.83 in /  1010 hPa NW 0.7 mph /  1.1 km/h 2.3 mph /  3.7 km/h 48 % 0.00 in /  0 mm
14:52 88.8 °F /  31.6 °C 64.7 °F /  18.2 °C 29.83 in /  1010 hPa SW 3.0 mph /  4.8 km/h 4.6 mph /  7.4 km/h 45 % 0.00 in /  0 mm
14:57 89.0 °F /  31.7 °C 64.9 °F /  18.3 °C 29.82 in /  1009.7 hPa NW 1.7 mph /  2.7 km/h 9.2 mph /  14.8 km/h 45 % 0.00 in /  0 mm
15:02 89.1 °F /  31.7 °C 63.0 °F /  17.2 °C 29.82 in /  1009.7 hPa SSW 4.5 mph /  7.2 km/h 11.5 mph /  18.5 km/h 42 % 0.00 in /  0 mm
15:07 89.1 °F /  31.7 °C 61.6 °F /  16.4 °C 29.82 in /  1009.7 hPa WSW 5.8 mph /  9.3 km/h 8.1 mph /  13 km/h 40 % 0.00 in /  0 mm
15:12 89.2 °F /  31.8 °C 63.8 °F /  17.7 °C 29.82 in /  1009.7 hPa SSW 5.7 mph /  9.2 km/h 9.2 mph /  14.8 km/h 43 % 0.00 in /  0 mm
15:17 89.2 °F /  31.8 °C 63.1 °F /  17.3 °C 29.82 in /  1009.7 hPa SW 3.9 mph /  6.3 km/h 10.4 mph /  16.7 km/h 42 % 0.00 in /  0 mm
15:22 89.0 °F /  31.7 °C 62.2 °F /  16.8 °C 29.82 in /  1009.7 hPa WSW 7.4 mph /  11.9 km/h 12.7 mph /  20.4 km/h 41 % 0.00 in /  0 mm
15:27 89.0 °F /  31.7 °C 61.5 °F /  16.4 °C 29.82 in /  1009.7 hPa WSW 5.2 mph /  8.4 km/h 11.5 mph /  18.5 km/h 40 % 0.00 in /  0 mm
15:32 88.9 °F /  31.6 °C 62.8 °F /  17.1 °C 29.82 in /  1009.7 hPa SW 3.5 mph /  5.6 km/h 5.8 mph /  9.3 km/h 42 % 0.00 in /  0 mm
15:37 88.7 °F /  31.5 °C 62.0 °F /  16.7 °C 29.82 in /  1009.7 hPa WNW 3.5 mph /  5.6 km/h 5.8 mph /  9.3 km/h 41 % 0.00 in /  0 mm
15:42 88.4 °F /  31.3 °C 62.4 °F /  16.9 °C 29.81 in /  1009.4 hPa West 2.0 mph /  3.2 km/h 5.8 mph /  9.3 km/h 42 % 0.00 in /  0 mm
15:47 88.2 °F /  31.2 °C 64.2 °F /  17.9 °C 29.82 in /  1009.7 hPa West 3.7 mph /  6 km/h 8.1 mph /  13 km/h 45 % 0.00 in /  0 mm
15:52 88.0 °F /  31.1 °C 64.6 °F /  18.1 °C 29.81 in /  1009.4 hPa SW 2.5 mph /  4 km/h 7.0 mph /  11.3 km/h 46 % 0.00 in /  0 mm
15:57 87.7 °F /  30.9 °C 63.1 °F /  17.3 °C 29.81 in /  1009.4 hPa SW 2.7 mph /  4.3 km/h 8.1 mph /  13 km/h 44 % 0.00 in /  0 mm
16:02 87.7 °F /  30.9 °C 62.4 °F /  16.9 °C 29.81 in /  1009.4 hPa WSW 3.6 mph /  5.8 km/h 8.1 mph /  13 km/h 43 % 0.00 in /  0 mm
16:07 87.6 °F /  30.9 °C 62.3 °F /  16.8 °C 29.81 in /  1009.4 hPa WSW 2.9 mph /  4.7 km/h 5.8 mph /  9.3 km/h 43 % 0.00 in /  0 mm
16:12 87.6 °F /  30.9 °C 64.3 °F /  17.9 °C 29.81 in /  1009.4 hPa West 1.3 mph /  2.1 km/h 7.0 mph /  11.3 km/h 46 % 0.00 in /  0 mm
16:17 87.7 °F /  30.9 °C 63.1 °F /  17.3 °C 29.82 in /  1009.7 hPa SSW 3.6 mph /  5.8 km/h 10.0 mph /  16.1 km/h 44 % 0.00 in /  0 mm
16:22 87.7 °F /  30.9 °C 62.4 °F /  16.9 °C 29.81 in /  1009.4 hPa WNW 4.2 mph /  6.8 km/h 6.9 mph /  11.1 km/h 43 % 0.00 in /  0 mm
16:27 87.7 °F /  30.9 °C 61.8 °F /  16.6 °C 29.81 in /  1009.4 hPa West 5.1 mph /  8.2 km/h 8.1 mph /  13 km/h 42 % 0.00 in /  0 mm
16:32 87.8 °F /  31 °C 61.9 °F /  16.6 °C 29.82 in /  1009.7 hPa SW 4.3 mph /  6.9 km/h 6.9 mph /  11.1 km/h 42 % 0.00 in /  0 mm
16:37 87.8 °F /  31 °C 62.5 °F /  16.9 °C 29.81 in /  1009.4 hPa West 2.1 mph /  3.4 km/h 5.8 mph /  9.3 km/h 43 % 0.00 in /  0 mm
16:42 87.8 °F /  31 °C 62.5 °F /  16.9 °C 29.81 in /  1009.4 hPa SW 3.5 mph /  5.6 km/h 5.8 mph /  9.3 km/h 43 % 0.00 in /  0 mm
16:47 87.8 °F /  31 °C 62.5 °F /  16.9 °C 29.81 in /  1009.4 hPa West 4.1 mph /  6.6 km/h 6.0 mph /  9.7 km/h 43 % 0.00 in /  0 mm
16:52 87.7 °F /  30.9 °C 61.1 °F /  16.2 °C 29.81 in /  1009.4 hPa WSW 3.6 mph /  5.8 km/h 8.1 mph /  13 km/h 41 % 0.00 in /  0 mm
16:57 87.5 °F /  30.8 °C 62.2 °F /  16.8 °C 29.81 in /  1009.4 hPa WSW 3.8 mph /  6.1 km/h 4.6 mph /  7.4 km/h 43 % 0.00 in /  0 mm
17:02 87.2 °F /  30.7 °C 61.3 °F /  16.3 °C 29.81 in /  1009.4 hPa WSW 4.4 mph /  7.1 km/h 10.4 mph /  16.7 km/h 42 % 0.00 in /  0 mm
17:07 86.9 °F /  30.5 °C 61.7 °F /  16.5 °C 29.81 in /  1009.4 hPa West 2.8 mph /  4.5 km/h 8.1 mph /  13 km/h 43 % 0.00 in /  0 mm
17:12 86.6 °F /  30.3 °C 60.8 °F /  16 °C 29.80 in /  1009 hPa SW 6.3 mph /  10.1 km/h 10.4 mph /  16.7 km/h 42 % 0.00 in /  0 mm
17:17 86.1 °F /  30.1 °C 61.6 °F /  16.4 °C 29.80 in /  1009 hPa SSW 1.3 mph /  2.1 km/h 3.5 mph /  5.6 km/h 44 % 0.00 in /  0 mm
17:22 85.7 °F /  29.8 °C 61.9 °F /  16.6 °C 29.81 in /  1009.4 hPa WSW 4.1 mph /  6.6 km/h 11.5 mph /  18.5 km/h 45 % 0.00 in /  0 mm
17:27 85.2 °F /  29.6 °C 60.8 °F /  16 °C 29.81 in /  1009.4 hPa WSW 1.2 mph /  1.9 km/h 6.0 mph /  9.7 km/h 44 % 0.00 in /  0 mm
17:32 84.7 °F /  29.3 °C 61.0 °F /  16.1 °C 29.81 in /  1009.4 hPa WSW 1.9 mph /  3.1 km/h 5.0 mph /  8 km/h 45 % 0.00 in /  0 mm
17:37 84.1 °F /  28.9 °C 60.5 °F /  15.8 °C 29.82 in /  1009.7 hPa SW 4.1 mph /  6.6 km/h 12.7 mph /  20.4 km/h 45 % 0.00 in /  0 mm
17:42 83.4 °F /  28.6 °C 62.2 °F /  16.8 °C 29.83 in /  1010 hPa SW 6.2 mph /  10 km/h 16.1 mph /  25.9 km/h 49 % 0.00 in /  0 mm
17:47 82.5 °F /  28.1 °C 62.5 °F /  16.9 °C 29.83 in /  1010 hPa South 4.6 mph /  7.4 km/h 9.2 mph /  14.8 km/h 51 % 0.00 in /  0 mm
17:52 81.8 °F /  27.7 °C 60.8 °F /  16 °C 29.82 in /  1009.7 hPa SSW 7.0 mph /  11.3 km/h 10.4 mph /  16.7 km/h 49 % 0.00 in /  0 mm
17:58 81.1 °F /  27.3 °C 60.7 °F /  15.9 °C 29.82 in /  1009.7 hPa SSW 4.8 mph /  7.7 km/h 8.1 mph /  13 km/h 50 % 0.00 in /  0 mm
18:03 80.7 °F /  27.1 °C 61.4 °F /  16.3 °C 29.82 in /  1009.7 hPa SW 1.2 mph /  1.9 km/h 5.0 mph /  8 km/h 52 % 0.00 in /  0 mm
18:08 80.3 °F /  26.8 °C 62.1 °F /  16.7 °C 29.82 in /  1009.7 hPa SSW 4.9 mph /  7.9 km/h 9.2 mph /  14.8 km/h 54 % 0.00 in /  0 mm
18:13 79.9 °F /  26.6 °C 61.2 °F /  16.2 °C 29.82 in /  1009.7 hPa SW 0.4 mph /  0.6 km/h 2.3 mph /  3.7 km/h 53 % 0.00 in /  0 mm
18:18 79.4 °F /  26.3 °C 61.8 °F /  16.6 °C 29.82 in /  1009.7 hPa SE 0.3 mph /  0.5 km/h 2.3 mph /  3.7 km/h 55 % 0.00 in /  0 mm
18:23 79.1 °F /  26.2 °C 62.6 °F /  17 °C 29.83 in /  1010 hPa SSW 0.9 mph /  1.4 km/h 3.5 mph /  5.6 km/h 57 % 0.00 in /  0 mm
18:28 78.9 °F /  26.1 °C 62.4 °F /  16.9 °C 29.83 in /  1010 hPa WSW 0.3 mph /  0.5 km/h 2.3 mph /  3.7 km/h 57 % 0.00 in /  0 mm
18:33 78.8 °F /  26 °C 62.8 °F /  17.1 °C 29.83 in /  1010 hPa SW 0.4 mph /  0.6 km/h 3.5 mph /  5.6 km/h 58 % 0.00 in /  0 mm
18:38 78.6 °F /  25.9 °C 63.1 °F /  17.3 °C 29.83 in /  1010 hPa Calm   2.3 mph /  3.7 km/h 59 % 0.00 in /  0 mm
18:43 78.4 °F /  25.8 °C 63.4 °F /  17.4 °C 29.83 in /  1010 hPa Calm   1.2 mph /  1.9 km/h 60 % 0.00 in /  0 mm
18:48 78.3 °F /  25.7 °C 63.3 °F /  17.4 °C 29.83 in /  1010 hPa WSW 0.9 mph /  1.4 km/h 3.0 mph /  4.8 km/h 60 % 0.00 in /  0 mm
18:53 78.0 °F /  25.6 °C 63.5 °F /  17.5 °C 29.83 in /  1010 hPa Calm   1.0 mph /  1.6 km/h 61 % 0.00 in /  0 mm
18:58 77.9 °F /  25.5 °C 63.8 °F /  17.7 °C 29.83 in /  1010 hPa SW 0.3 mph /  0.5 km/h 1.2 mph /  1.9 km/h 62 % 0.00 in /  0 mm
19:03 77.8 °F /  25.4 °C 63.7 °F /  17.6 °C 29.83 in /  1010 hPa SW 0.2 mph /  0.3 km/h 1.2 mph /  1.9 km/h 62 % 0.00 in /  0 mm
19:08 77.7 °F /  25.4 °C 64.1 °F /  17.8 °C 29.83 in /  1010 hPa SW 0.4 mph /  0.6 km/h 3.5 mph /  5.6 km/h 63 % 0.00 in /  0 mm
19:13 77.5 °F /  25.3 °C 63.9 °F /  17.7 °C 29.83 in /  1010 hPa WSW 0.8 mph /  1.3 km/h 3.5 mph /  5.6 km/h 63 % 0.00 in /  0 mm
19:18 77.5 °F /  25.3 °C 63.9 °F /  17.7 °C 29.83 in /  1010 hPa WSW 2.1 mph /  3.4 km/h 3.5 mph /  5.6 km/h 63 % 0.00 in /  0 mm
19:23 77.4 °F /  25.2 °C 63.8 °F /  17.7 °C 29.83 in /  1010 hPa WSW 0.2 mph /  0.3 km/h 1.2 mph /  1.9 km/h 63 % 0.00 in /  0 mm
19:25 77.4 °F /  25.2 °C 63.8 °F /  17.7 °C 29.83 in /  1010 hPa WSW 0.4 mph /  0.6 km/h 2.3 mph /  3.7 km/h 63 % 0.00 in /  0 mm
19:29 77.4 °F /  25.2 °C 63.8 °F /  17.7 °C 29.83 in /  1010 hPa SW 1.5 mph /  2.4 km/h 3.5 mph /  5.6 km/h 63 % 0.00 in /  0 mm
19:34 77.3 °F /  25.2 °C 63.7 °F /  17.6 °C 29.83 in /  1010 hPa West 0.4 mph /  0.6 km/h 2.3 mph /  3.7 km/h 63 % 0.00 in /  0 mm
19:39 77.2 °F /  25.1 °C 63.6 °F /  17.6 °C 29.83 in /  1010 hPa West 0.1 mph /  0.2 km/h 1.2 mph /  1.9 km/h 63 % 0.00 in /  0 mm
19:44 77.2 °F /  25.1 °C 64.1 °F /  17.8 °C 29.83 in /  1010 hPa West 0.1 mph /  0.2 km/h 1.2 mph /  1.9 km/h 64 % 0.00 in /  0 mm
19:49 77.0 °F /  25 °C 63.9 °F /  17.7 °C 29.83 in /  1010 hPa Calm     64 % 0.00 in /  0 mm
19:54 76.9 °F /  24.9 °C 64.2 °F /  17.9 °C 29.83 in /  1010 hPa Calm   1.2 mph /  1.9 km/h 65 % 0.00 in /  0 mm
19:59 76.7 °F /  24.8 °C 64.0 °F /  17.8 °C 29.83 in /  1010 hPa South 0.1 mph /  0.2 km/h 2.3 mph /  3.7 km/h 65 % 0.00 in /  0 mm
20:04 76.4 °F /  24.7 °C 64.6 °F /  18.1 °C 29.83 in /  1010 hPa SSE 0.2 mph /  0.3 km/h 2.3 mph /  3.7 km/h 67 % 0.00 in /  0 mm
20:09 76.1 °F /  24.5 °C 64.3 °F /  17.9 °C 29.83 in /  1010 hPa Calm   1.2 mph /  1.9 km/h 67 % 0.00 in /  0 mm
20:14 75.9 °F /  24.4 °C 64.6 °F /  18.1 °C 29.83 in /  1010 hPa Calm   1.2 mph /  1.9 km/h 68 % 0.00 in /  0 mm
20:19 75.7 °F /  24.3 °C 64.4 °F /  18 °C 29.83 in /  1010 hPa SSE 0.2 mph /  0.3 km/h 1.2 mph /  1.9 km/h 68 % 0.00 in /  0 mm
20:24 75.5 °F /  24.2 °C 64.6 °F /  18.1 °C 29.83 in /  1010 hPa Calm     69 % 0.00 in /  0 mm
20:29 75.3 °F /  24.1 °C 64.8 °F /  18.2 °C 29.84 in /  1010.4 hPa Calm   1.2 mph /  1.9 km/h 70 % 0.00 in /  0 mm
20:34 75.1 °F /  23.9 °C 65.1 °F /  18.4 °C 29.84 in /  1010.4 hPa Calm     71 % 0.00 in /  0 mm
20:39 74.9 °F /  23.8 °C 65.3 °F /  18.5 °C 29.84 in /  1010.4 hPa Calm     72 % 0.00 in /  0 mm
20:44 74.6 °F /  23.7 °C 65.4 °F /  18.6 °C 29.84 in /  1010.4 hPa Calm     73 % 0.00 in /  0 mm
20:49 74.3 °F /  23.5 °C 65.1 °F /  18.4 °C 29.85 in /  1010.7 hPa Calm     73 % 0.00 in /  0 mm
20:54 74.1 °F /  23.4 °C 64.9 °F /  18.3 °C 29.85 in /  1010.7 hPa South 0.1 mph /  0.2 km/h 1.2 mph /  1.9 km/h 73 % 0.00 in /  0 mm
20:55 74.1 °F /  23.4 °C 65.3 °F /  18.5 °C 29.85 in /  1010.7 hPa Calm   1.2 mph /  1.9 km/h 74 % 0.00 in /  0 mm
21:00 73.8 °F /  23.2 °C 65.0 °F /  18.3 °C 29.85 in /  1010.7 hPa SSW 0.8 mph /  1.3 km/h 3.5 mph /  5.6 km/h 74 % 0.00 in /  0 mm
21:05 73.6 °F /  23.1 °C 65.2 °F /  18.4 °C 29.85 in /  1010.7 hPa Calm     75 % 0.00 in /  0 mm
21:10 73.3 °F /  22.9 °C 64.9 °F /  18.3 °C 29.86 in /  1011.1 hPa WSW 0.5 mph /  0.8 km/h 2.3 mph /  3.7 km/h 75 % 0.00 in /  0 mm
21:15 73.1 °F /  22.8 °C 64.7 °F /  18.2 °C 29.85 in /  1010.7 hPa WSW 0.7 mph /  1.1 km/h 3.5 mph /  5.6 km/h 75 % 0.00 in /  0 mm
21:20 72.9 °F /  22.7 °C 64.9 °F /  18.3 °C 29.86 in /  1011.1 hPa Calm   2.3 mph /  3.7 km/h 76 % 0.00 in /  0 mm
21:25 72.8 °F /  22.7 °C 64.4 °F /  18 °C 29.86 in /  1011.1 hPa Calm     75 % 0.00 in /  0 mm
21:30 72.6 °F /  22.6 °C 64.2 °F /  17.9 °C 29.86 in /  1011.1 hPa Calm     75 % 0.00 in /  0 mm
21:35 72.5 °F /  22.5 °C 64.1 °F /  17.8 °C 29.87 in /  1011.4 hPa Calm     75 % 0.00 in /  0 mm
21:40 72.4 °F /  22.4 °C 64.0 °F /  17.8 °C 29.87 in /  1011.4 hPa Calm   1.2 mph /  1.9 km/h 75 % 0.00 in /  0 mm
21:45 72.2 °F /  22.3 °C 63.8 °F /  17.7 °C 29.88 in /  1011.7 hPa SW 3.7 mph /  6 km/h 4.6 mph /  7.4 km/h 75 % 0.00 in /  0 mm
21:50 72.2 °F /  22.3 °C 63.8 °F /  17.7 °C 29.88 in /  1011.7 hPa SW 0.6 mph /  1 km/h 3.0 mph /  4.8 km/h 75 % 0.00 in /  0 mm
21:55 72.2 °F /  22.3 °C 63.8 °F /  17.7 °C 29.88 in /  1011.7 hPa SW 0.2 mph /  0.3 km/h 2.3 mph /  3.7 km/h 75 % 0.00 in /  0 mm
22:00 72.1 °F /  22.3 °C 63.7 °F /  17.6 °C 29.88 in /  1011.7 hPa Calm     75 % 0.00 in /  0 mm
22:05 72.1 °F /  22.3 °C 63.7 °F /  17.6 °C 29.88 in /  1011.7 hPa SW 0.1 mph /  0.2 km/h 1.2 mph /  1.9 km/h 75 % 0.00 in /  0 mm
22:10 72.1 °F /  22.3 °C 63.4 °F /  17.4 °C 29.88 in /  1011.7 hPa Calm   1.2 mph /  1.9 km/h 74 % 0.00 in /  0 mm
22:15 72.0 °F /  22.2 °C 63.3 °F /  17.4 °C 29.88 in /  1011.7 hPa SW 0.4 mph /  0.6 km/h 1.2 mph /  1.9 km/h 74 % 0.00 in /  0 mm
22:20 72.0 °F /  22.2 °C 63.3 °F /  17.4 °C 29.88 in /  1011.7 hPa SW 0.5 mph /  0.8 km/h 2.3 mph /  3.7 km/h 74 % 0.00 in /  0 mm
22:25 71.9 °F /  22.2 °C 63.2 °F /  17.3 °C 29.88 in /  1011.7 hPa West 0.4 mph /  0.6 km/h 3.5 mph /  5.6 km/h 74 % 0.00 in /  0 mm
22:30 71.9 °F /  22.2 °C 63.2 °F /  17.3 °C 29.88 in /  1011.7 hPa WSW 2.5 mph /  4 km/h 4.0 mph /  6.4 km/h 74 % 0.00 in /  0 mm
22:35 71.8 °F /  22.1 °C 63.1 °F /  17.3 °C 29.88 in /  1011.7 hPa WSW 2.3 mph /  3.7 km/h 4.6 mph /  7.4 km/h 74 % 0.00 in /  0 mm
22:40 71.7 °F /  22.1 °C 63.0 °F /  17.2 °C 29.88 in /  1011.7 hPa Calm     74 % 0.00 in /  0 mm
22:45 71.6 °F /  22 °C 63.3 °F /  17.4 °C 29.88 in /  1011.7 hPa WSW 1.8 mph /  2.9 km/h 3.5 mph /  5.6 km/h 75 % 0.00 in /  0 mm
22:50 71.5 °F /  21.9 °C 63.2 °F /  17.3 °C 29.88 in /  1011.7 hPa WSW 3.1 mph /  5 km/h 4.6 mph /  7.4 km/h 75 % 0.00 in /  0 mm
22:56 71.4 °F /  21.9 °C 63.1 °F /  17.3 °C 29.88 in /  1011.7 hPa WSW 1.9 mph /  3.1 km/h 3.5 mph /  5.6 km/h 75 % 0.00 in /  0 mm
23:01 71.3 °F /  21.8 °C 63.0 °F /  17.2 °C 29.88 in /  1011.7 hPa WSW 2.3 mph /  3.7 km/h 4.0 mph /  6.4 km/h 75 % 0.00 in /  0 mm
23:06 71.3 °F /  21.8 °C 63.0 °F /  17.2 °C 29.88 in /  1011.7 hPa WSW 2.0 mph /  3.2 km/h 3.5 mph /  5.6 km/h 75 % 0.00 in /  0 mm
23:11 71.3 °F /  21.8 °C 63.0 °F /  17.2 °C 29.88 in /  1011.7 hPa WSW 0.9 mph /  1.4 km/h 2.3 mph /  3.7 km/h 75 % 0.00 in /  0 mm
23:16 71.2 °F /  21.8 °C 62.9 °F /  17.2 °C 29.88 in /  1011.7 hPa WSW 1.8 mph /  2.9 km/h 2.3 mph /  3.7 km/h 75 % 0.00 in /  0 mm
23:21 71.2 °F /  21.8 °C 62.9 °F /  17.2 °C 29.89 in /  1012.1 hPa WSW 2.0 mph /  3.2 km/h 4.0 mph /  6.4 km/h 75 % 0.00 in /  0 mm
23:26 71.1 °F /  21.7 °C 63.1 °F /  17.3 °C 29.89 in /  1012.1 hPa WSW 2.0 mph /  3.2 km/h 3.5 mph /  5.6 km/h 76 % 0.00 in /  0 mm
23:31 71.1 °F /  21.7 °C 63.1 °F /  17.3 °C 29.89 in /  1012.1 hPa Calm     76 % 0.00 in /  0 mm
23:36 71.0 °F /  21.7 °C 63.1 °F /  17.3 °C 29.89 in /  1012.1 hPa WSW 1.0 mph /  1.6 km/h 3.0 mph /  4.8 km/h 76 % 0.00 in /  0 mm
23:41 70.9 °F /  21.6 °C 63.0 °F /  17.2 °C 29.90 in /  1012.4 hPa WSW 1.0 mph /  1.6 km/h 3.0 mph /  4.8 km/h 76 % 0.00 in /  0 mm
23:46 70.8 °F /  21.6 °C 62.9 °F /  17.2 °C 29.90 in /  1012.4 hPa Calm   2.0 mph /  3.2 km/h 76 % 0.00 in /  0 mm
23:48 70.7 °F /  21.5 °C 62.8 °F /  17.1 °C 29.90 in /  1012.4 hPa WSW 0.1 mph /  0.2 km/h 1.2 mph /  1.9 km/h 76 % 0.00 in /  0 mm
23:53 70.6 °F /  21.4 °C 63.0 °F /  17.2 °C 29.90 in /  1012.4 hPa WSW 0.2 mph /  0.3 km/h 1.2 mph /  1.9 km/h 77 % 0.00 in /  0 mm
23:59 70.5 °F /  21.4 °C 62.9 °F /  17.2 °C 29.90 in /  1012.4 hPa Calm     77 % 0.00 in /  0 mm
Crab Meadow Weather
Compliments of Weather Underground - 3 mb

Script developed by  Jim McMurry - jmcmurry@mwt.net Adapted for the template by  Wim van der Kuil - Leuven-Template.eu

Extremes: Alaska and Hawaii have the same heat record. In Pahala, Hawaii the temperature on April 27, 1931 was 100 degrees F. Alaska's state heat record is also 100 degrees F. on June 27, 1915 at Fort Yukon.